KTHV/THV METAR and TAF weather

Enter ICAO airport designator
Station Type Date Time Source
KTHV METAR 2021/08/02 02:53 UTC NOAA

KTHV 020253Z AUTO 00000KT 6SM BR SCT005 BKN100 17/16 A2992 RMK AO2 SLP132 60038 T01720156 53018 $


Station Type Date Time Source
KTHV Decoded METAR 2021/08/02 02:53 UTC NOAA

YORK AIRPORT, PA, United States (KTHV) 39-55N 076-53W 144M
Aug 01, 2021 - 10:53 PM EDT / 2021.08.02 0253 UTC
Wind: Calm:0
Visibility: 6 mile(s):0
Sky conditions: mostly cloudy
Weather: mist
Temperature: 63.0 F (17.2 C)
Dew Point: 60.1 F (15.6 C)
Relative Humidity: 90%
Pressure (altimeter): 29.92 in. Hg (1013 hPa)
Pressure tendency: 0.05 inches (1.8 hPa) higher than three hours ago
ob: KTHV 020253Z AUTO 00000KT 6SM BR SCT005 BKN100 17/16 A2992 RMK AO2 SLP132 60038 T01720156 53018
cycle: 3

Station Type Date Time Source
KTHV TAF UTC NOAA

Error!

Example: see airport list